createdAt,value
2018-12-13T00:00:42.198Z,2.30
2018-12-13T00:02:45.303Z,2.30
2018-12-13T00:04:48.474Z,2.40
2018-12-13T00:06:51.570Z,2.50
2018-12-13T00:08:54.797Z,2.60
2018-12-13T00:10:57.881Z,2.60
2018-12-13T00:13:01.054Z,2.60
2018-12-13T00:15:04.394Z,2.60
2018-12-13T00:17:07.649Z,2.70
2018-12-13T00:19:10.878Z,2.60
2018-12-13T00:21:14.066Z,2.70
2018-12-13T00:23:17.252Z,2.80
2018-12-13T00:25:20.417Z,2.80
2018-12-13T00:27:23.570Z,2.80
2018-12-13T00:29:26.855Z,2.80
2018-12-13T00:31:30.025Z,2.90
2018-12-13T00:33:33.124Z,2.90
2018-12-13T00:35:36.222Z,3.00
2018-12-13T00:37:39.371Z,3.00
2018-12-13T00:39:42.561Z,3.00
2018-12-13T00:41:45.718Z,2.90
2018-12-13T00:43:48.844Z,3.00
2018-12-13T00:45:52.109Z,3.00
2018-12-13T00:47:55.266Z,3.00
2018-12-13T00:49:58.410Z,3.10
2018-12-13T00:52:01.497Z,3.00
2018-12-13T00:54:04.651Z,3.00
2018-12-13T00:56:07.809Z,3.00
2018-12-13T00:58:10.971Z,3.00
2018-12-13T01:00:14.200Z,3.00
2018-12-13T01:02:17.279Z,3.00
2018-12-13T01:04:20.452Z,3.00
2018-12-13T01:06:23.687Z,3.00
2018-12-13T01:08:26.935Z,2.90
2018-12-13T01:10:30.165Z,2.90
2018-12-13T01:12:33.343Z,2.90
2018-12-13T01:14:36.522Z,2.90
2018-12-13T01:16:39.684Z,2.90
2018-12-13T01:18:42.862Z,2.90
2018-12-13T01:20:45.990Z,2.70
2018-12-13T01:22:49.082Z,2.70
2018-12-13T01:24:52.286Z,2.60
2018-12-13T01:26:55.461Z,2.60
2018-12-13T01:28:58.554Z,2.60
2018-12-13T01:31:01.726Z,2.50
2018-12-13T01:33:04.806Z,2.40
2018-12-13T01:35:07.990Z,2.50
2018-12-13T01:37:11.078Z,2.30
2018-12-13T01:39:14.242Z,2.30
2018-12-13T01:41:17.359Z,2.20
2018-12-13T01:43:32.089Z,2.30
2018-12-13T01:45:35.447Z,2.30
2018-12-13T01:47:38.538Z,2.10
2018-12-13T01:49:41.723Z,2.00
2018-12-13T01:51:44.854Z,2.00
2018-12-13T01:53:47.941Z,2.00
2018-12-13T01:55:51.050Z,1.90
2018-12-13T01:57:54.207Z,1.80
2018-12-13T01:59:57.323Z,1.80
2018-12-13T02:02:00.494Z,1.70
2018-12-13T02:04:03.594Z,1.70
2018-12-13T02:06:06.701Z,1.70
2018-12-13T02:08:09.865Z,1.60
2018-12-13T02:10:13.035Z,1.60
2018-12-13T02:12:16.166Z,1.50
2018-12-13T02:14:19.383Z,1.50
2018-12-13T02:16:22.522Z,1.40
2018-12-13T02:18:25.673Z,1.40
2018-12-13T02:20:28.895Z,1.40
2018-12-13T02:22:32.018Z,1.30
2018-12-13T02:24:35.166Z,1.30
2018-12-13T02:26:38.366Z,1.20
2018-12-13T02:28:41.502Z,1.20
2018-12-13T02:30:44.632Z,1.10
2018-12-13T02:32:47.843Z,1.00
2018-12-13T02:34:51.006Z,1.00
2018-12-13T02:36:54.148Z,1.00
2018-12-13T02:38:57.287Z,0.90
2018-12-13T02:41:01.523Z,0.90
2018-12-13T02:43:04.661Z,0.90
2018-12-13T02:45:08.051Z,0.90
2018-12-13T02:47:11.271Z,0.80
2018-12-13T02:49:14.385Z,0.80
2018-12-13T02:51:17.506Z,0.80
2018-12-13T02:53:20.638Z,0.70
2018-12-13T02:55:23.799Z,0.70
2018-12-13T02:57:27.542Z,0.70
2018-12-13T02:59:30.765Z,0.80
2018-12-13T03:01:33.907Z,0.80
2018-12-13T03:03:37.039Z,0.80
2018-12-13T03:05:40.258Z,0.80
2018-12-13T03:07:43.395Z,0.70
2018-12-13T03:09:46.638Z,0.70
2018-12-13T03:11:49.901Z,0.80
2018-12-13T03:13:53.218Z,0.80
2018-12-13T03:15:56.399Z,0.70
2018-12-13T03:17:59.785Z,0.70
2018-12-13T03:20:03.011Z,0.70
2018-12-13T03:22:06.093Z,0.70
2018-12-13T03:24:09.262Z,0.60
2018-12-13T03:26:12.431Z,0.60
2018-12-13T03:28:15.580Z,0.60
2018-12-13T03:30:18.762Z,0.60
2018-12-13T03:32:21.923Z,0.60
2018-12-13T03:34:25.162Z,0.60
2018-12-13T03:36:28.258Z,0.60
2018-12-13T03:38:31.463Z,0.60
2018-12-13T03:40:34.743Z,0.60
2018-12-13T03:42:37.839Z,0.60
2018-12-13T03:44:41.024Z,0.60
2018-12-13T03:46:44.271Z,0.70
2018-12-13T03:48:47.442Z,0.60
2018-12-13T03:50:50.608Z,0.70
2018-12-13T03:52:53.832Z,0.60
2018-12-13T03:54:56.972Z,0.60
2018-12-13T03:57:00.114Z,0.60
2018-12-13T03:59:03.261Z,0.60
2018-12-13T04:01:06.431Z,0.50
2018-12-13T04:03:09.539Z,0.60
2018-12-13T04:05:12.705Z,0.60
2018-12-13T04:07:15.904Z,0.50
2018-12-13T04:09:19.006Z,0.50
2018-12-13T04:11:22.163Z,0.50
2018-12-13T04:13:25.304Z,0.50
2018-12-13T04:15:28.551Z,0.40
2018-12-13T04:17:31.640Z,0.40
2018-12-13T04:19:34.734Z,0.40
2018-12-13T04:21:37.843Z,0.40
2018-12-13T04:23:40.930Z,0.30
2018-12-13T04:25:44.094Z,0.30
2018-12-13T04:27:47.752Z,0.30
2018-12-13T04:29:52.755Z,0.20
2018-12-13T04:31:56.448Z,0.20
2018-12-13T04:34:00.382Z,0.20
2018-12-13T04:36:04.285Z,0.20
2018-12-13T04:38:08.988Z,0.10
2018-12-13T04:40:14.869Z,0.10
2018-12-13T04:47:16.158Z,0.20
2018-12-13T04:49:19.532Z,0.10
2018-12-13T04:51:22.853Z,0.00
2018-12-13T04:53:26.315Z,-0.10
2018-12-13T04:55:29.566Z,-0.10
2018-12-13T04:57:32.662Z,-0.10
2018-12-13T04:59:35.830Z,-0.10
2018-12-13T05:01:39.011Z,-0.10
2018-12-13T05:03:42.210Z,-0.10
2018-12-13T05:05:45.306Z,-0.10
2018-12-13T05:07:48.398Z,-0.20
2018-12-13T05:09:51.564Z,-0.10
2018-12-13T05:11:54.705Z,-0.10
2018-12-13T05:13:57.874Z,-0.10
2018-12-13T05:16:01.046Z,-0.20
2018-12-13T05:18:04.321Z,-0.10
2018-12-13T05:20:07.488Z,0.00
2018-12-13T05:22:10.735Z,-0.20
2018-12-13T05:24:14.009Z,-0.10
2018-12-13T05:26:17.158Z,-0.10
2018-12-13T05:28:20.337Z,-0.30
2018-12-13T05:30:23.434Z,-0.20
2018-12-13T05:32:26.532Z,-0.30
2018-12-13T05:34:29.694Z,-0.30
2018-12-13T05:36:32.810Z,-0.20
2018-12-13T05:38:35.939Z,-0.30
2018-12-13T05:40:39.046Z,-0.40
2018-12-13T05:42:42.974Z,-0.30
2018-12-13T05:44:46.225Z,-0.30
2018-12-13T05:46:49.540Z,-0.40
2018-12-13T05:48:52.697Z,-0.40
2018-12-13T05:50:55.805Z,-0.40
2018-12-13T05:52:58.926Z,-0.40
2018-12-13T05:55:02.134Z,-0.40
2018-12-13T05:57:05.314Z,-0.40
2018-12-13T05:59:08.433Z,-0.40
2018-12-13T06:01:11.665Z,-0.50
2018-12-13T06:03:14.938Z,-0.50
2018-12-13T06:05:18.121Z,-0.40
2018-12-13T06:07:21.221Z,-0.40
2018-12-13T06:09:24.403Z,-0.30
2018-12-13T06:11:27.494Z,-0.30
2018-12-13T06:13:30.591Z,-0.40
2018-12-13T06:15:33.698Z,-0.30
2018-12-13T06:17:36.822Z,-0.30
2018-12-13T06:19:39.972Z,-0.40
2018-12-13T06:21:43.067Z,-0.40
2018-12-13T06:23:47.077Z,-0.40
2018-12-13T06:25:50.590Z,-0.40
2018-12-13T06:27:53.845Z,-0.40
2018-12-13T06:29:59.102Z,-0.50
2018-12-13T06:32:02.111Z,-0.50
2018-12-13T06:34:05.290Z,-0.50
2018-12-13T06:36:08.411Z,-0.60
2018-12-13T06:38:11.591Z,-0.50
2018-12-13T06:40:16.192Z,-0.50
2018-12-13T06:42:21.118Z,-0.50
2018-12-13T06:46:59.157Z,-0.60
2018-12-13T06:49:26.392Z,-0.60
2018-12-13T06:51:33.407Z,-0.60
2018-12-13T06:53:47.873Z,-0.70
2018-12-13T07:03:44.979Z,-0.70
2018-12-13T07:22:03.929Z,-0.70
2018-12-13T07:26:29.632Z,-0.80
2018-12-13T07:28:32.848Z,-0.80
2018-12-13T07:30:36.122Z,-0.80
2018-12-13T07:32:39.382Z,-0.80
2018-12-13T07:34:42.556Z,-0.80
2018-12-13T07:36:45.823Z,-0.70
2018-12-13T07:38:49.088Z,-0.60
2018-12-13T07:40:52.187Z,-0.50
2018-12-13T07:42:55.378Z,-0.50
2018-12-13T07:44:58.856Z,-0.50
2018-12-13T07:47:02.017Z,-0.40
2018-12-13T07:49:05.202Z,-0.30
2018-12-13T07:51:08.482Z,-0.20
2018-12-13T07:53:11.589Z,-0.20
2018-12-13T07:55:14.783Z,-0.10
2018-12-13T07:57:18.088Z,0.00
2018-12-13T07:59:21.310Z,0.10
2018-12-13T08:01:24.480Z,0.30
2018-12-13T08:03:29.581Z,0.30
2018-12-13T08:05:32.796Z,0.50
2018-12-13T08:07:35.907Z,0.50
2018-12-13T08:09:39.203Z,0.50
2018-12-13T08:11:42.630Z,0.60
2018-12-13T08:13:45.773Z,0.60
2018-12-13T08:15:48.921Z,0.80
2018-12-13T08:17:52.085Z,0.90
2018-12-13T08:19:55.231Z,1.00
2018-12-13T08:21:58.515Z,1.00
2018-12-13T08:24:01.664Z,1.10
2018-12-13T08:26:04.798Z,1.20
2018-12-13T08:28:07.954Z,1.30
2018-12-13T08:30:11.270Z,1.30
2018-12-13T08:32:14.410Z,1.30
2018-12-13T08:34:24.953Z,1.30
2018-12-13T08:36:33.747Z,1.50
2018-12-13T08:38:36.998Z,1.50
2018-12-13T08:40:40.149Z,1.60
2018-12-13T08:42:43.363Z,1.70
2018-12-13T08:44:46.658Z,1.70
2018-12-13T08:46:49.794Z,1.90
2018-12-13T08:48:53.007Z,1.80
2018-12-13T08:50:56.145Z,1.90
2018-12-13T08:52:59.291Z,1.90
2018-12-13T08:55:02.589Z,2.00
2018-12-13T08:57:05.728Z,2.00
2018-12-13T08:59:09.021Z,2.10
2018-12-13T09:01:12.212Z,2.10
2018-12-13T09:03:15.338Z,2.10
2018-12-13T09:05:18.470Z,2.20
2018-12-13T09:07:21.680Z,2.20
2018-12-13T09:09:24.878Z,2.30
2018-12-13T09:11:28.098Z,2.30
2018-12-13T09:13:31.179Z,2.40
2018-12-13T09:15:34.279Z,2.40
2018-12-13T09:17:37.506Z,2.60
2018-12-13T09:19:40.589Z,2.60
2018-12-13T09:21:43.691Z,2.70
2018-12-13T09:23:46.834Z,2.80
2018-12-13T09:25:49.981Z,2.90
2018-12-13T09:27:53.071Z,2.90
2018-12-13T09:29:56.166Z,3.00
2018-12-13T09:31:59.340Z,3.00
2018-12-13T09:34:02.505Z,3.10
2018-12-13T09:36:05.666Z,3.20
2018-12-13T09:38:08.826Z,3.30
2018-12-13T09:40:12.050Z,3.40
2018-12-13T09:42:15.147Z,3.40
2018-12-13T09:44:18.231Z,3.50
2018-12-13T09:46:21.321Z,3.60
2018-12-13T09:48:24.397Z,3.70
2018-12-13T09:50:27.477Z,3.70
2018-12-13T11:39:32.032Z,5.40
2018-12-13T11:44:01.225Z,5.10
2018-12-13T11:49:12.175Z,5.20
2018-12-13T11:51:19.393Z,5.10
2018-12-13T11:53:22.934Z,5.10
2018-12-13T11:57:56.053Z,5.10
2018-12-13T11:59:59.261Z,5.20
2018-12-13T12:02:02.505Z,5.20
2018-12-13T12:04:05.618Z,5.30
2018-12-13T12:06:08.768Z,5.30
2018-12-13T12:08:11.888Z,5.30
2018-12-13T12:10:15.084Z,5.30
2018-12-13T12:12:19.278Z,5.40
2018-12-13T12:14:22.711Z,5.40
2018-12-13T12:16:28.199Z,5.50
2018-12-13T12:18:33.336Z,5.60
2018-12-13T12:20:40.519Z,5.60
2018-12-13T12:22:44.631Z,5.60
2018-12-13T12:24:51.120Z,5.60
2018-12-13T12:26:54.714Z,5.50
2018-12-13T12:31:28.029Z,5.40
2018-12-13T12:33:38.257Z,5.30
2018-12-13T12:35:50.788Z,5.30
2018-12-13T13:10:16.274Z,4.80
2018-12-13T13:15:43.820Z,4.90
2018-12-13T13:28:34.444Z,4.80
2018-12-13T13:33:35.970Z,4.90
2018-12-13T13:36:18.552Z,4.80
2018-12-13T13:38:48.639Z,4.80
2018-12-13T14:03:19.353Z,4.40
2018-12-13T14:05:55.963Z,4.30
2018-12-13T14:30:57.916Z,3.80
2018-12-13T14:34:37.032Z,3.80
2018-12-13T14:37:09.806Z,3.90
2018-12-13T14:39:44.397Z,3.90
2018-12-13T14:45:05.958Z,3.90
2018-12-13T15:01:18.686Z,3.80
2018-12-13T15:16:48.382Z,3.80
2018-12-13T15:27:19.487Z,3.50
2018-12-13T15:32:00.731Z,3.50
2018-12-13T15:34:14.239Z,3.50
2018-12-13T15:36:32.580Z,3.50
2018-12-13T15:38:44.323Z,3.50
2018-12-13T15:43:30.260Z,3.40
2018-12-13T15:46:20.879Z,3.40
2018-12-13T15:51:11.645Z,3.40
2018-12-13T15:56:10.766Z,3.40
2018-12-13T15:58:13.878Z,3.30
2018-12-13T16:00:17.106Z,3.30
2018-12-13T16:02:20.433Z,3.30
2018-12-13T16:04:23.510Z,3.30
2018-12-13T16:06:28.670Z,3.30
2018-12-13T16:08:31.774Z,3.30
2018-12-13T16:10:34.919Z,3.30
2018-12-13T16:12:40.114Z,3.30
2018-12-13T16:14:43.242Z,3.30
2018-12-13T16:16:46.375Z,3.30
2018-12-13T16:18:49.525Z,3.20
2018-12-13T16:20:52.745Z,3.20
2018-12-13T16:22:55.926Z,3.20
2018-12-13T16:24:59.074Z,3.20
2018-12-13T16:27:02.254Z,3.20
2018-12-13T16:29:05.428Z,3.20
2018-12-13T16:31:17.845Z,3.20
2018-12-13T16:33:25.054Z,3.20
2018-12-13T16:35:28.290Z,3.20
2018-12-13T16:37:31.494Z,3.20
2018-12-13T16:39:34.641Z,3.10
2018-12-13T17:28:50.541Z,3.00
2018-12-13T17:33:21.392Z,3.00
2018-12-13T17:35:25.145Z,3.10
2018-12-13T17:37:36.232Z,3.10
2018-12-13T17:43:08.793Z,3.10
2018-12-13T17:45:40.305Z,3.00
2018-12-13T18:01:36.140Z,3.00
2018-12-13T18:20:41.023Z,2.90
2018-12-13T18:22:49.259Z,3.00
2018-12-13T18:24:56.884Z,3.00
2018-12-13T18:27:00.586Z,3.00
2018-12-13T18:29:05.089Z,3.00
2018-12-13T18:31:08.671Z,3.00
2018-12-13T18:44:34.055Z,2.80
2018-12-13T18:46:46.392Z,2.90
2018-12-13T18:51:55.256Z,2.90
2018-12-13T18:57:11.382Z,3.00
2018-12-13T19:14:29.882Z,2.90
2018-12-13T19:19:11.593Z,2.90
2018-12-13T19:21:23.269Z,2.90
2018-12-13T19:23:37.805Z,2.90
2018-12-13T19:28:43.141Z,2.70
2018-12-13T19:33:53.266Z,2.40
2018-12-13T19:38:59.174Z,2.30
2018-12-13T19:52:33.499Z,2.10
2018-12-13T19:55:07.725Z,2.10
2018-12-13T19:57:30.176Z,2.10
2018-12-13T20:00:02.872Z,2.00
2018-12-13T20:27:07.782Z,2.30
2018-12-13T20:32:41.556Z,2.30
2018-12-13T20:34:46.042Z,2.40
2018-12-13T20:39:16.747Z,2.40
2018-12-13T20:41:22.951Z,2.40
2018-12-13T20:43:30.447Z,2.50
2018-12-13T20:45:33.786Z,2.50
2018-12-13T20:47:36.954Z,2.50
2018-12-13T20:49:40.240Z,2.50
2018-12-13T20:51:43.672Z,2.50
2018-12-13T20:53:46.887Z,2.60
2018-12-13T20:55:50.531Z,2.60
2018-12-13T20:58:16.463Z,2.60
2018-12-13T21:00:19.773Z,2.60
2018-12-13T21:02:22.961Z,2.60
2018-12-13T21:04:26.144Z,2.60
2018-12-13T21:06:29.379Z,2.60
2018-12-13T21:08:32.537Z,2.60
2018-12-13T21:10:35.854Z,2.60
2018-12-13T21:12:39.069Z,2.60
2018-12-13T21:14:42.384Z,2.60
2018-12-13T21:16:59.914Z,2.60
2018-12-13T21:19:03.634Z,2.50
2018-12-13T21:21:06.908Z,2.60
2018-12-13T21:23:11.780Z,2.50
2018-12-13T21:25:33.209Z,2.60
2018-12-13T21:27:38.071Z,2.50
2018-12-13T21:32:25.797Z,2.50
2018-12-13T21:34:29.256Z,2.50
2018-12-13T21:41:50.871Z,2.40
2018-12-13T21:43:56.629Z,2.30
2018-12-13T21:46:01.531Z,2.30
2018-12-13T21:48:12.523Z,2.30
2018-12-13T21:50:17.136Z,2.30
2018-12-13T21:52:37.567Z,2.30
2018-12-13T21:54:43.204Z,2.30
2018-12-13T21:57:08.419Z,2.20
2018-12-13T22:02:19.771Z,2.10
2018-12-13T22:04:23.389Z,2.00
2018-12-13T22:06:37.293Z,1.90
2018-12-13T22:08:43.790Z,1.80
2018-12-13T22:11:04.076Z,1.70
2018-12-13T22:21:23.559Z,1.40
